sensor_id;sensor_type;location;lat;lon;timestamp;temperature;humidity
51922;DHT22;37948;53.260;6.394;2023-04-03T00:02:13;3.00;99.90
51922;DHT22;37948;53.260;6.394;2023-04-03T00:04:38;2.90;99.90
51922;DHT22;37948;53.260;6.394;2023-04-03T00:07:05;2.90;99.90
51922;DHT22;37948;53.260;6.394;2023-04-03T00:09:30;2.80;99.90
51922;DHT22;37948;53.260;6.394;2023-04-03T00:11:56;2.80;99.90
51922;DHT22;37948;53.260;6.394;2023-04-03T00:14:22;2.80;99.90
51922;DHT22;37948;53.260;6.394;2023-04-03T00:16:47;2.80;99.90
51922;DHT22;37948;53.260;6.394;2023-04-03T00:19:13;2.80;99.90
51922;DHT22;37948;53.260;6.394;2023-04-03T00:21:38;2.80;99.90
51922;DHT22;37948;53.260;6.394;2023-04-03T00:24:05;2.80;99.90
51922;DHT22;37948;53.260;6.394;2023-04-03T00:26:31;2.80;99.90
51922;DHT22;37948;53.260;6.394;2023-04-03T00:28:56;2.80;99.90
51922;DHT22;37948;53.260;6.394;2023-04-03T00:31:22;2.70;99.90
51922;DHT22;37948;53.260;6.394;2023-04-03T00:33:48;2.70;99.90
51922;DHT22;37948;53.260;6.394;2023-04-03T00:36:13;2.70;99.90
51922;DHT22;37948;53.260;6.394;2023-04-03T00:38:39;2.70;99.90
51922;DHT22;37948;53.260;6.394;2023-04-03T00:41:05;2.60;99.90
51922;DHT22;37948;53.260;6.394;2023-04-03T00:43:31;2.60;99.90
51922;DHT22;37948;53.260;6.394;2023-04-03T00:45:58;2.60;99.90
51922;DHT22;37948;53.260;6.394;2023-04-03T00:50:53;2.60;99.90
51922;DHT22;37948;53.260;6.394;2023-04-03T00:53:23;2.60;99.90
51922;DHT22;37948;53.260;6.394;2023-04-03T00:55:51;2.60;99.90
51922;DHT22;37948;53.260;6.394;2023-04-03T00:58:20;2.50;99.90
51922;DHT22;37948;53.260;6.394;2023-04-03T01:00:51;2.50;99.90
51922;DHT22;37948;53.260;6.394;2023-04-03T01:03:21;2.50;99.90
51922;DHT22;37948;53.260;6.394;2023-04-03T01:05:47;2.50;99.90
51922;DHT22;37948;53.260;6.394;2023-04-03T01:08:13;2.50;99.90
51922;DHT22;37948;53.260;6.394;2023-04-03T01:10:38;2.40;99.90
51922;DHT22;37948;53.260;6.394;2023-04-03T01:13:19;2.40;99.90
51922;DHT22;37948;53.260;6.394;2023-04-03T01:15:44;2.40;99.90
51922;DHT22;37948;53.260;6.394;2023-04-03T01:18:10;2.30;99.90
51922;DHT22;37948;53.260;6.394;2023-04-03T01:20:42;2.30;99.90
51922;DHT22;37948;53.260;6.394;2023-04-03T01:25:48;2.20;99.90
51922;DHT22;37948;53.260;6.394;2023-04-03T01:28:24;2.20;99.90
51922;DHT22;37948;53.260;6.394;2023-04-03T01:30:58;2.20;99.90
51922;DHT22;37948;53.260;6.394;2023-04-03T01:33:23;2.20;99.90
51922;DHT22;37948;53.260;6.394;2023-04-03T01:35:49;2.20;99.90
51922;DHT22;37948;53.260;6.394;2023-04-03T01:38:15;2.20;99.90
51922;DHT22;37948;53.260;6.394;2023-04-03T01:40:41;2.10;99.90
51922;DHT22;37948;53.260;6.394;2023-04-03T01:43:07;2.20;99.90
51922;DHT22;37948;53.260;6.394;2023-04-03T01:45:32;2.10;99.90
51922;DHT22;37948;53.260;6.394;2023-04-03T01:47:58;2.10;99.90
51922;DHT22;37948;53.260;6.394;2023-04-03T01:50:24;2.10;99.90
51922;DHT22;37948;53.260;6.394;2023-04-03T01:52:49;2.10;99.90
51922;DHT22;37948;53.260;6.394;2023-04-03T01:55:15;2.10;99.90
51922;DHT22;37948;53.260;6.394;2023-04-03T01:57:41;2.10;99.90
51922;DHT22;37948;53.260;6.394;2023-04-03T02:00:07;2.10;99.90
51922;DHT22;37948;53.260;6.394;2023-04-03T02:02:33;2.10;99.90
51922;DHT22;37948;53.260;6.394;2023-04-03T02:04:58;2.00;99.90
51922;DHT22;37948;53.260;6.394;2023-04-03T02:07:24;2.00;99.90
51922;DHT22;37948;53.260;6.394;2023-04-03T02:09:50;2.00;99.90
51922;DHT22;37948;53.260;6.394;2023-04-03T02:12:16;1.90;99.90
51922;DHT22;37948;53.260;6.394;2023-04-03T02:14:41;1.90;99.90
51922;DHT22;37948;53.260;6.394;2023-04-03T02:17:07;1.80;99.90
51922;DHT22;37948;53.260;6.394;2023-04-03T02:19:34;1.80;99.90
51922;DHT22;37948;53.260;6.394;2023-04-03T02:22:01;1.70;99.90
51922;DHT22;37948;53.260;6.394;2023-04-03T02:24:27;1.70;99.90
51922;DHT22;37948;53.260;6.394;2023-04-03T02:26:53;1.70;99.90
51922;DHT22;37948;53.260;6.394;2023-04-03T02:29:19;1.70;99.90
51922;DHT22;37948;53.260;6.394;2023-04-03T02:31:45;1.70;99.90
51922;DHT22;37948;53.260;6.394;2023-04-03T02:34:11;1.80;99.90
51922;DHT22;37948;53.260;6.394;2023-04-03T02:36:36;1.70;99.90
51922;DHT22;37948;53.260;6.394;2023-04-03T02:39:03;1.70;99.90
51922;DHT22;37948;53.260;6.394;2023-04-03T02:41:28;1.70;99.90
51922;DHT22;37948;53.260;6.394;2023-04-03T02:44:01;1.60;99.90
51922;DHT22;37948;53.260;6.394;2023-04-03T02:46:27;1.60;99.90
51922;DHT22;37948;53.260;6.394;2023-04-03T02:48:52;1.60;99.90
51922;DHT22;37948;53.260;6.394;2023-04-03T02:51:18;1.60;99.90
51922;DHT22;37948;53.260;6.394;2023-04-03T02:53:43;1.60;99.90
51922;DHT22;37948;53.260;6.394;2023-04-03T02:56:09;1.50;99.90
51922;DHT22;37948;53.260;6.394;2023-04-03T02:58:35;1.50;99.90
51922;DHT22;37948;53.260;6.394;2023-04-03T03:01:01;1.50;99.90
51922;DHT22;37948;53.260;6.394;2023-04-03T03:03:26;1.50;99.90
51922;DHT22;37948;53.260;6.394;2023-04-03T03:06:02;1.50;99.90
51922;DHT22;37948;53.260;6.394;2023-04-03T03:08:28;1.50;99.90
51922;DHT22;37948;53.260;6.394;2023-04-03T03:10:53;1.50;99.90
51922;DHT22;37948;53.260;6.394;2023-04-03T03:13:19;1.50;99.90
51922;DHT22;37948;53.260;6.394;2023-04-03T03:15:45;1.50;99.90
51922;DHT22;37948;53.260;6.394;2023-04-03T03:18:11;1.50;99.90
51922;DHT22;37948;53.260;6.394;2023-04-03T03:20:36;1.40;99.90
51922;DHT22;37948;53.260;6.394;2023-04-03T03:23:02;1.40;99.90
51922;DHT22;37948;53.260;6.394;2023-04-03T03:25:27;1.40;99.90
51922;DHT22;37948;53.260;6.394;2023-04-03T03:27:53;1.40;99.90
51922;DHT22;37948;53.260;6.394;2023-04-03T03:30:19;1.40;99.90
51922;DHT22;37948;53.260;6.394;2023-04-03T03:32:44;1.40;99.90
51922;DHT22;37948;53.260;6.394;2023-04-03T03:35:10;1.40;99.90
51922;DHT22;37948;53.260;6.394;2023-04-03T03:37:36;1.30;99.90
51922;DHT22;37948;53.260;6.394;2023-04-03T03:40:02;1.30;99.90
51922;DHT22;37948;53.260;6.394;2023-04-03T03:42:27;1.40;99.90
51922;DHT22;37948;53.260;6.394;2023-04-03T03:44:53;1.30;99.90
51922;DHT22;37948;53.260;6.394;2023-04-03T03:47:19;1.30;99.90
51922;DHT22;37948;53.260;6.394;2023-04-03T03:49:44;1.30;99.90
51922;DHT22;37948;53.260;6.394;2023-04-03T03:52:10;1.20;99.90
51922;DHT22;37948;53.260;6.394;2023-04-03T03:54:36;1.30;99.90
51922;DHT22;37948;53.260;6.394;2023-04-03T03:57:02;1.30;99.90
51922;DHT22;37948;53.260;6.394;2023-04-03T03:59:28;1.20;99.90
51922;DHT22;37948;53.260;6.394;2023-04-03T04:01:54;1.20;99.90
51922;DHT22;37948;53.260;6.394;2023-04-03T04:04:23;1.20;99.90
51922;DHT22;37948;53.260;6.394;2023-04-03T04:06:48;1.20;99.90
51922;DHT22;37948;53.260;6.394;2023-04-03T04:09:14;1.20;99.90
51922;DHT22;37948;53.260;6.394;2023-04-03T04:11:42;1.20;99.90
51922;DHT22;37948;53.260;6.394;2023-04-03T04:14:08;1.10;99.90
51922;DHT22;37948;53.260;6.394;2023-04-03T04:16:38;1.10;99.90
51922;DHT22;37948;53.260;6.394;2023-04-03T04:19:04;1.10;99.90
51922;DHT22;37948;53.260;6.394;2023-04-03T04:21:30;1.10;99.90
51922;DHT22;37948;53.260;6.394;2023-04-03T04:23:55;1.10;99.90
51922;DHT22;37948;53.260;6.394;2023-04-03T04:26:21;1.00;99.90
51922;DHT22;37948;53.260;6.394;2023-04-03T04:28:46;1.00;99.90
51922;DHT22;37948;53.260;6.394;2023-04-03T04:31:12;1.00;99.90
51922;DHT22;37948;53.260;6.394;2023-04-03T04:33:38;1.00;99.90
51922;DHT22;37948;53.260;6.394;2023-04-03T04:36:03;1.00;99.90
51922;DHT22;37948;53.260;6.394;2023-04-03T04:38:29;0.90;99.90
51922;DHT22;37948;53.260;6.394;2023-04-03T04:40:55;0.90;99.90
51922;DHT22;37948;53.260;6.394;2023-04-03T04:43:20;0.90;99.90
51922;DHT22;37948;53.260;6.394;2023-04-03T04:45:46;0.80;99.90
51922;DHT22;37948;53.260;6.394;2023-04-03T04:48:12;0.80;99.90
51922;DHT22;37948;53.260;6.394;2023-04-03T04:50:37;0.80;99.90
51922;DHT22;37948;53.260;6.394;2023-04-03T04:53:03;0.80;99.90
51922;DHT22;37948;53.260;6.394;2023-04-03T04:55:29;0.80;99.90
51922;DHT22;37948;53.260;6.394;2023-04-03T04:57:55;0.80;99.90
51922;DHT22;37948;53.260;6.394;2023-04-03T05:00:21;0.80;99.90
51922;DHT22;37948;53.260;6.394;2023-04-03T05:02:47;0.80;99.90
51922;DHT22;37948;53.260;6.394;2023-04-03T05:05:12;0.70;99.90
51922;DHT22;37948;53.260;6.394;2023-04-03T05:07:38;0.70;99.90
51922;DHT22;37948;53.260;6.394;2023-04-03T05:10:04;0.80;99.90
51922;DHT22;37948;53.260;6.394;2023-04-03T05:12:29;0.80;99.90
51922;DHT22;37948;53.260;6.394;2023-04-03T05:14:55;0.80;99.90
51922;DHT22;37948;53.260;6.394;2023-04-03T05:17:20;0.80;99.90
51922;DHT22;37948;53.260;6.394;2023-04-03T05:19:46;0.70;99.90
51922;DHT22;37948;53.260;6.394;2023-04-03T05:22:12;0.70;99.90
51922;DHT22;37948;53.260;6.394;2023-04-03T05:24:37;0.70;99.90
51922;DHT22;37948;53.260;6.394;2023-04-03T05:27:03;0.70;99.90
51922;DHT22;37948;53.260;6.394;2023-04-03T05:29:29;0.70;99.90
51922;DHT22;37948;53.260;6.394;2023-04-03T05:31:55;0.70;99.90
51922;DHT22;37948;53.260;6.394;2023-04-03T05:34:20;0.70;99.90
51922;DHT22;37948;53.260;6.394;2023-04-03T05:36:46;0.70;99.90
51922;DHT22;37948;53.260;6.394;2023-04-03T05:39:11;0.70;99.90
51922;DHT22;37948;53.260;6.394;2023-04-03T05:41:37;0.80;99.90
51922;DHT22;37948;53.260;6.394;2023-04-03T05:44:03;0.80;99.90
51922;DHT22;37948;53.260;6.394;2023-04-03T05:46:28;0.70;99.90
51922;DHT22;37948;53.260;6.394;2023-04-03T05:48:54;0.70;99.90
51922;DHT22;37948;53.260;6.394;2023-04-03T05:51:24;0.80;99.90
51922;DHT22;37948;53.260;6.394;2023-04-03T05:54:12;0.70;99.90
51922;DHT22;37948;53.260;6.394;2023-04-03T05:56:39;0.80;99.90
51922;DHT22;37948;53.260;6.394;2023-04-03T05:59:05;0.80;99.90
51922;DHT22;37948;53.260;6.394;2023-04-03T06:01:30;0.80;99.90
51922;DHT22;37948;53.260;6.394;2023-04-03T06:03:56;0.80;99.90
51922;DHT22;37948;53.260;6.394;2023-04-03T06:06:23;0.80;99.90
51922;DHT22;37948;53.260;6.394;2023-04-03T06:08:50;0.80;99.90
51922;DHT22;37948;53.260;6.394;2023-04-03T06:11:16;0.80;99.90
51922;DHT22;37948;53.260;6.394;2023-04-03T06:13:42;0.90;99.90
51922;DHT22;37948;53.260;6.394;2023-04-03T06:16:12;0.90;99.90
51922;DHT22;37948;53.260;6.394;2023-04-03T06:18:40;0.90;99.90
51922;DHT22;37948;53.260;6.394;2023-04-03T06:21:06;1.00;99.90
51922;DHT22;37948;53.260;6.394;2023-04-03T06:23:33;1.00;99.90
51922;DHT22;37948;53.260;6.394;2023-04-03T06:25:58;1.00;99.90
51922;DHT22;37948;53.260;6.394;2023-04-03T06:28:25;1.10;99.90
51922;DHT22;37948;53.260;6.394;2023-04-03T06:30:50;1.10;99.90
51922;DHT22;37948;53.260;6.394;2023-04-03T06:33:16;1.20;99.90
51922;DHT22;37948;53.260;6.394;2023-04-03T06:35:42;1.20;99.90
51922;DHT22;37948;53.260;6.394;2023-04-03T06:38:07;1.30;99.90
51922;DHT22;37948;53.260;6.394;2023-04-03T06:40:35;1.30;99.90
51922;DHT22;37948;53.260;6.394;2023-04-03T06:43:01;1.40;99.90
51922;DHT22;37948;53.260;6.394;2023-04-03T06:45:27;1.40;99.90
51922;DHT22;37948;53.260;6.394;2023-04-03T06:47:53;1.40;99.90
51922;DHT22;37948;53.260;6.394;2023-04-03T06:50:19;1.50;99.90
51922;DHT22;37948;53.260;6.394;2023-04-03T06:52:45;1.60;99.90
51922;DHT22;37948;53.260;6.394;2023-04-03T06:55:11;1.60;99.90
51922;DHT22;37948;53.260;6.394;2023-04-03T06:57:36;1.70;99.90
51922;DHT22;37948;53.260;6.394;2023-04-03T07:00:04;1.80;99.90
51922;DHT22;37948;53.260;6.394;2023-04-03T07:02:30;1.80;99.90
51922;DHT22;37948;53.260;6.394;2023-04-03T07:04:56;1.90;99.90
51922;DHT22;37948;53.260;6.394;2023-04-03T07:07:21;2.00;99.90
51922;DHT22;37948;53.260;6.394;2023-04-03T07:09:47;2.10;99.90
51922;DHT22;37948;53.260;6.394;2023-04-03T07:12:13;2.10;99.90
51922;DHT22;37948;53.260;6.394;2023-04-03T07:14:39;2.20;99.90
51922;DHT22;37948;53.260;6.394;2023-04-03T07:17:05;2.30;99.90
51922;DHT22;37948;53.260;6.394;2023-04-03T07:19:31;2.40;99.90
51922;DHT22;37948;53.260;6.394;2023-04-03T07:21:56;2.50;99.90
51922;DHT22;37948;53.260;6.394;2023-04-03T07:24:22;2.50;99.90
51922;DHT22;37948;53.260;6.394;2023-04-03T07:26:52;2.60;99.90
51922;DHT22;37948;53.260;6.394;2023-04-03T07:29:18;2.70;99.90
51922;DHT22;37948;53.260;6.394;2023-04-03T07:31:43;2.80;99.90
51922;DHT22;37948;53.260;6.394;2023-04-03T07:34:10;2.90;99.90
51922;DHT22;37948;53.260;6.394;2023-04-03T07:36:36;3.00;99.90
51922;DHT22;37948;53.260;6.394;2023-04-03T07:39:03;3.00;99.90
51922;DHT22;37948;53.260;6.394;2023-04-03T07:41:28;3.10;99.90
51922;DHT22;37948;53.260;6.394;2023-04-03T07:43:54;3.20;99.90
51922;DHT22;37948;53.260;6.394;2023-04-03T07:46:22;3.30;99.90
51922;DHT22;37948;53.260;6.394;2023-04-03T07:48:47;3.40;99.90
51922;DHT22;37948;53.260;6.394;2023-04-03T07:51:13;3.40;99.90
51922;DHT22;37948;53.260;6.394;2023-04-03T07:53:39;3.50;99.90
51922;DHT22;37948;53.260;6.394;2023-04-03T07:56:04;3.60;99.90
51922;DHT22;37948;53.260;6.394;2023-04-03T07:58:30;3.60;99.90
51922;DHT22;37948;53.260;6.394;2023-04-03T08:00:56;3.80;99.90
51922;DHT22;37948;53.260;6.394;2023-04-03T08:03:22;3.90;99.90
51922;DHT22;37948;53.260;6.394;2023-04-03T08:05:49;3.90;99.90
51922;DHT22;37948;53.260;6.394;2023-04-03T08:08:18;4.10;99.90
51922;DHT22;37948;53.260;6.394;2023-04-03T08:10:43;4.20;99.90
51922;DHT22;37948;53.260;6.394;2023-04-03T08:13:13;4.30;99.90
51922;DHT22;37948;53.260;6.394;2023-04-03T08:15:38;4.40;99.90
51922;DHT22;37948;53.260;6.394;2023-04-03T08:18:04;4.50;99.90
51922;DHT22;37948;53.260;6.394;2023-04-03T08:20:30;4.50;99.90
51922;DHT22;37948;53.260;6.394;2023-04-03T08:22:56;4.60;99.90
51922;DHT22;37948;53.260;6.394;2023-04-03T08:25:22;4.70;99.90
51922;DHT22;37948;53.260;6.394;2023-04-03T08:27:47;4.80;99.90
51922;DHT22;37948;53.260;6.394;2023-04-03T08:30:13;4.90;99.90
51922;DHT22;37948;53.260;6.394;2023-04-03T08:32:39;4.90;99.90
51922;DHT22;37948;53.260;6.394;2023-04-03T08:35:08;5.00;99.90
51922;DHT22;37948;53.260;6.394;2023-04-03T08:37:37;5.10;99.90
51922;DHT22;37948;53.260;6.394;2023-04-03T08:40:05;5.20;99.90
51922;DHT22;37948;53.260;6.394;2023-04-03T08:45:42;5.30;99.90
51922;DHT22;37948;53.260;6.394;2023-04-03T08:48:16;5.40;99.90
51922;DHT22;37948;53.260;6.394;2023-04-03T08:50:47;5.50;99.90
51922;DHT22;37948;53.260;6.394;2023-04-03T08:53:23;5.50;99.90
51922;DHT22;37948;53.260;6.394;2023-04-03T08:55:51;5.60;99.90
51922;DHT22;37948;53.260;6.394;2023-04-03T08:58:24;5.70;99.90
51922;DHT22;37948;53.260;6.394;2023-04-03T09:03:23;5.90;99.90
51922;DHT22;37948;53.260;6.394;2023-04-03T09:06:10;6.00;99.90
51922;DHT22;37948;53.260;6.394;2023-04-03T09:09:02;6.10;99.90
51922;DHT22;37948;53.260;6.394;2023-04-03T09:12:00;6.20;99.90
51922;DHT22;37948;53.260;6.394;2023-04-03T09:22:46;6.60;99.90
51922;DHT22;37948;53.260;6.394;2023-04-03T09:25:34;6.70;99.90
51922;DHT22;37948;53.260;6.394;2023-04-03T09:28:01;6.80;99.90
51922;DHT22;37948;53.260;6.394;2023-04-03T09:30:28;6.90;99.90
51922;DHT22;37948;53.260;6.394;2023-04-03T09:32:56;7.00;99.90
51922;DHT22;37948;53.260;6.394;2023-04-03T09:35:31;7.10;99.90
51922;DHT22;37948;53.260;6.394;2023-04-03T09:40:40;7.30;99.90
51922;DHT22;37948;53.260;6.394;2023-04-03T09:43:22;7.50;99.90
51922;DHT22;37948;53.260;6.394;2023-04-03T09:45:50;7.60;99.90
51922;DHT22;37948;53.260;6.394;2023-04-03T09:48:23;7.70;99.90
51922;DHT22;37948;53.260;6.394;2023-04-03T09:56:02;8.10;99.90
51922;DHT22;37948;53.260;6.394;2023-04-03T09:58:38;8.10;99.90
51922;DHT22;37948;53.260;6.394;2023-04-03T10:01:06;8.30;99.90
51922;DHT22;37948;53.260;6.394;2023-04-03T10:03:45;8.30;99.90
51922;DHT22;37948;53.260;6.394;2023-04-03T10:06:23;8.30;99.90
51922;DHT22;37948;53.260;6.394;2023-04-03T10:09:00;8.40;99.90
51922;DHT22;37948;53.260;6.394;2023-04-03T10:11:30;8.50;99.90
51922;DHT22;37948;53.260;6.394;2023-04-03T10:13:58;8.70;99.90
51922;DHT22;37948;53.260;6.394;2023-04-03T10:16:34;8.80;99.90
51922;DHT22;37948;53.260;6.394;2023-04-03T10:19:19;8.90;99.90
51922;DHT22;37948;53.260;6.394;2023-04-03T10:21:54;9.00;99.90
51922;DHT22;37948;53.260;6.394;2023-04-03T10:24:36;9.10;99.90
51922;DHT22;37948;53.260;6.394;2023-04-03T10:30:08;9.20;99.90
51922;DHT22;37948;53.260;6.394;2023-04-03T10:32:42;9.20;99.90
51922;DHT22;37948;53.260;6.394;2023-04-03T10:38:24;9.20;99.90
51922;DHT22;37948;53.260;6.394;2023-04-03T10:41:10;9.20;99.90
51922;DHT22;37948;53.260;6.394;2023-04-03T10:46:20;9.40;99.60
51922;DHT22;37948;53.260;6.394;2023-04-03T10:51:33;9.60;99.10
51922;DHT22;37948;53.260;6.394;2023-04-03T10:54:24;9.60;99.00
51922;DHT22;37948;53.260;6.394;2023-04-03T10:56:57;9.70;99.40
51922;DHT22;37948;53.260;6.394;2023-04-03T11:02:01;9.80;97.90
51922;DHT22;37948;53.260;6.394;2023-04-03T11:04:35;9.90;97.80
51922;DHT22;37948;53.260;6.394;2023-04-03T11:07:45;10.00;97.60
51922;DHT22;37948;53.260;6.394;2023-04-03T11:10:17;10.10;97.40
51922;DHT22;37948;53.260;6.394;2023-04-03T11:13:03;10.20;97.10
51922;DHT22;37948;53.260;6.394;2023-04-03T11:15:32;10.30;96.80
51922;DHT22;37948;53.260;6.394;2023-04-03T11:18:04;10.50;96.30
51922;DHT22;37948;53.260;6.394;2023-04-03T11:20:32;10.50;95.80
51922;DHT22;37948;53.260;6.394;2023-04-03T11:23:22;10.60;95.70
51922;DHT22;37948;53.260;6.394;2023-04-03T11:25:53;10.60;95.50
51922;DHT22;37948;53.260;6.394;2023-04-03T11:28:19;10.60;95.50
51922;DHT22;37948;53.260;6.394;2023-04-03T11:30:49;10.60;95.50
51922;DHT22;37948;53.260;6.394;2023-04-03T11:36:12;10.70;94.40
51922;DHT22;37948;53.260;6.394;2023-04-03T11:38:46;10.80;94.20
51922;DHT22;37948;53.260;6.394;2023-04-03T11:41:13;10.90;94.20
51922;DHT22;37948;53.260;6.394;2023-04-03T11:43:56;11.00;93.60
51922;DHT22;37948;53.260;6.394;2023-04-03T11:46:52;11.00;93.30
51922;DHT22;37948;53.260;6.394;2023-04-03T11:58:01;11.10;92.80
51922;DHT22;37948;53.260;6.394;2023-04-03T12:00:47;11.10;92.50
51922;DHT22;37948;53.260;6.394;2023-04-03T12:11:15;11.30;92.30
51922;DHT22;37948;53.260;6.394;2023-04-03T12:16:26;11.30;91.70
51922;DHT22;37948;53.260;6.394;2023-04-03T12:21:23;11.40;92.20
51922;DHT22;37948;53.260;6.394;2023-04-03T12:24:05;11.40;91.50
51922;DHT22;37948;53.260;6.394;2023-04-03T12:29:33;11.50;91.20
51922;DHT22;37948;53.260;6.394;2023-04-03T12:35:34;11.60;91.10
51922;DHT22;37948;53.260;6.394;2023-04-03T12:40:58;11.70;91.10
51922;DHT22;37948;53.260;6.394;2023-04-03T12:43:37;11.70;90.80
51922;DHT22;37948;53.260;6.394;2023-04-03T12:48:39;11.60;90.00
51922;DHT22;37948;53.260;6.394;2023-04-03T12:51:20;11.60;89.40
51922;DHT22;37948;53.260;6.394;2023-04-03T12:53:49;11.70;90.00
51922;DHT22;37948;53.260;6.394;2023-04-03T12:56:26;11.70;90.20
51922;DHT22;37948;53.260;6.394;2023-04-03T12:59:30;11.70;89.30
51922;DHT22;37948;53.260;6.394;2023-04-03T13:02:00;11.70;88.80
51922;DHT22;37948;53.260;6.394;2023-04-03T13:04:32;11.70;89.50
51922;DHT22;37948;53.260;6.394;2023-04-03T13:06:58;11.80;89.70
51922;DHT22;37948;53.260;6.394;2023-04-03T13:11:54;11.80;89.90
51922;DHT22;37948;53.260;6.394;2023-04-03T13:14:23;11.80;90.00
51922;DHT22;37948;53.260;6.394;2023-04-03T13:16:53;11.80;90.00
51922;DHT22;37948;53.260;6.394;2023-04-03T13:19:23;11.80;90.00
51922;DHT22;37948;53.260;6.394;2023-04-03T13:21:49;11.90;90.00
51922;DHT22;37948;53.260;6.394;2023-04-03T13:24:17;11.90;89.40
51922;DHT22;37948;53.260;6.394;2023-04-03T13:26:42;11.90;88.30
51922;DHT22;37948;53.260;6.394;2023-04-03T13:29:21;11.80;88.40
51922;DHT22;37948;53.260;6.394;2023-04-03T13:31:53;11.90;88.90
51922;DHT22;37948;53.260;6.394;2023-04-03T13:34:21;11.90;89.00
51922;DHT22;37948;53.260;6.394;2023-04-03T13:41:53;12.00;89.50
51922;DHT22;37948;53.260;6.394;2023-04-03T13:49:39;12.20;90.40
51922;DHT22;37948;53.260;6.394;2023-04-03T13:52:27;12.20;89.70
51922;DHT22;37948;53.260;6.394;2023-04-03T13:55:00;12.10;89.30
51922;DHT22;37948;53.260;6.394;2023-04-03T13:57:26;12.10;89.10
51922;DHT22;37948;53.260;6.394;2023-04-03T13:59:52;12.00;90.10
51922;DHT22;37948;53.260;6.394;2023-04-03T14:02:33;12.00;90.20
51922;DHT22;37948;53.260;6.394;2023-04-03T14:05:00;11.90;90.00
51922;DHT22;37948;53.260;6.394;2023-04-03T14:07:29;11.70;90.30
51922;DHT22;37948;53.260;6.394;2023-04-03T14:09:56;11.50;90.10
51922;DHT22;37948;53.260;6.394;2023-04-03T14:12:33;11.30;90.40
51922;DHT22;37948;53.260;6.394;2023-04-03T14:15:04;11.20;90.10
51922;DHT22;37948;53.260;6.394;2023-04-03T14:17:30;11.10;90.50
51922;DHT22;37948;53.260;6.394;2023-04-03T14:19:58;11.10;90.50
51922;DHT22;37948;53.260;6.394;2023-04-03T14:22:26;11.10;90.90
51922;DHT22;37948;53.260;6.394;2023-04-03T14:24:55;11.10;90.80
51922;DHT22;37948;53.260;6.394;2023-04-03T14:27:27;11.10;90.90
51922;DHT22;37948;53.260;6.394;2023-04-03T14:29:55;11.00;90.90
51922;DHT22;37948;53.260;6.394;2023-04-03T14:32:22;11.10;91.40
51922;DHT22;37948;53.260;6.394;2023-04-03T14:34:48;11.00;91.50
51922;DHT22;37948;53.260;6.394;2023-04-03T14:37:17;11.00;91.00
51922;DHT22;37948;53.260;6.394;2023-04-03T14:39:43;11.00;91.40
51922;DHT22;37948;53.260;6.394;2023-04-03T14:42:19;10.90;91.20
51922;DHT22;37948;53.260;6.394;2023-04-03T14:44:46;10.90;91.60
51922;DHT22;37948;53.260;6.394;2023-04-03T14:47:24;10.90;91.70
51922;DHT22;37948;53.260;6.394;2023-04-03T14:49:51;10.90;92.10
51922;DHT22;37948;53.260;6.394;2023-04-03T14:52:35;11.00;92.40
51922;DHT22;37948;53.260;6.394;2023-04-03T14:55:02;10.80;91.90
51922;DHT22;37948;53.260;6.394;2023-04-03T14:57:29;10.70;92.10
51922;DHT22;37948;53.260;6.394;2023-04-03T14:59:55;10.70;92.70
51922;DHT22;37948;53.260;6.394;2023-04-03T15:02:25;10.70;92.50
51922;DHT22;37948;53.260;6.394;2023-04-03T15:04:51;10.60;92.40
51922;DHT22;37948;53.260;6.394;2023-04-03T15:07:17;10.60;92.80
51922;DHT22;37948;53.260;6.394;2023-04-03T15:09:43;10.60;92.60
51922;DHT22;37948;53.260;6.394;2023-04-03T15:12:08;10.50;92.40
51922;DHT22;37948;53.260;6.394;2023-04-03T15:14:35;10.50;92.40
51922;DHT22;37948;53.260;6.394;2023-04-03T15:17:01;10.50;92.50
51922;DHT22;37948;53.260;6.394;2023-04-03T15:19:28;10.40;92.10
51922;DHT22;37948;53.260;6.394;2023-04-03T15:21:53;10.40;91.40
51922;DHT22;37948;53.260;6.394;2023-04-03T15:24:19;10.30;91.10
51922;DHT22;37948;53.260;6.394;2023-04-03T15:26:45;10.30;91.60
51922;DHT22;37948;53.260;6.394;2023-04-03T15:29:12;10.20;91.30
51922;DHT22;37948;53.260;6.394;2023-04-03T15:31:37;10.00;91.30
51922;DHT22;37948;53.260;6.394;2023-04-03T15:34:03;10.00;91.00
51922;DHT22;37948;53.260;6.394;2023-04-03T15:36:28;10.00;91.10
51922;DHT22;37948;53.260;6.394;2023-04-03T15:38:54;9.90;91.50
51922;DHT22;37948;53.260;6.394;2023-04-03T15:41:20;9.90;91.40
51922;DHT22;37948;53.260;6.394;2023-04-03T15:43:46;9.80;90.90
51922;DHT22;37948;53.260;6.394;2023-04-03T15:46:12;9.70;91.10
51922;DHT22;37948;53.260;6.394;2023-04-03T15:48:38;9.60;91.30
51922;DHT22;37948;53.260;6.394;2023-04-03T15:51:05;9.60;91.80
51922;DHT22;37948;53.260;6.394;2023-04-03T15:53:31;9.50;92.00
51922;DHT22;37948;53.260;6.394;2023-04-03T15:55:57;9.40;92.20
51922;DHT22;37948;53.260;6.394;2023-04-03T15:58:22;9.40;92.40
51922;DHT22;37948;53.260;6.394;2023-04-03T16:00:48;9.30;92.70
51922;DHT22;37948;53.260;6.394;2023-04-03T16:03:19;9.20;93.40
51922;DHT22;37948;53.260;6.394;2023-04-03T16:05:46;9.20;94.00
51922;DHT22;37948;53.260;6.394;2023-04-03T16:08:13;9.10;94.20
51922;DHT22;37948;53.260;6.394;2023-04-03T16:10:39;9.10;94.10
51922;DHT22;37948;53.260;6.394;2023-04-03T16:13:06;9.00;94.50
51922;DHT22;37948;53.260;6.394;2023-04-03T16:15:33;8.90;94.70
51922;DHT22;37948;53.260;6.394;2023-04-03T16:18:00;8.90;94.50
51922;DHT22;37948;53.260;6.394;2023-04-03T16:20:26;8.80;94.70
51922;DHT22;37948;53.260;6.394;2023-04-03T16:22:52;8.80;95.10
51922;DHT22;37948;53.260;6.394;2023-04-03T16:25:18;8.70;95.10
51922;DHT22;37948;53.260;6.394;2023-04-03T16:27:44;8.70;95.10
51922;DHT22;37948;53.260;6.394;2023-04-03T16:30:11;8.60;95.00
51922;DHT22;37948;53.260;6.394;2023-04-03T16:32:37;8.60;95.60
51922;DHT22;37948;53.260;6.394;2023-04-03T16:35:04;8.50;96.20
51922;DHT22;37948;53.260;6.394;2023-04-03T16:37:30;8.50;96.70
51922;DHT22;37948;53.260;6.394;2023-04-03T16:39:55;8.50;96.60
51922;DHT22;37948;53.260;6.394;2023-04-03T16:42:24;8.40;96.40
51922;DHT22;37948;53.260;6.394;2023-04-03T16:44:49;8.30;96.50
51922;DHT22;37948;53.260;6.394;2023-04-03T16:47:15;8.30;96.80
51922;DHT22;37948;53.260;6.394;2023-04-03T16:49:45;8.30;97.10
51922;DHT22;37948;53.260;6.394;2023-04-03T16:52:11;8.20;97.10
51922;DHT22;37948;53.260;6.394;2023-04-03T16:54:36;8.20;97.30
51922;DHT22;37948;53.260;6.394;2023-04-03T16:57:02;8.10;97.70
51922;DHT22;37948;53.260;6.394;2023-04-03T16:59:28;8.10;98.30
51922;DHT22;37948;53.260;6.394;2023-04-03T17:01:53;8.00;98.20
51922;DHT22;37948;53.260;6.394;2023-04-03T17:04:19;8.00;98.40
51922;DHT22;37948;53.260;6.394;2023-04-03T17:06:45;8.00;98.90
51922;DHT22;37948;53.260;6.394;2023-04-03T17:09:11;7.90;99.20
51922;DHT22;37948;53.260;6.394;2023-04-03T17:11:37;7.90;99.40
51922;DHT22;37948;53.260;6.394;2023-04-03T17:14:04;7.80;99.40
51922;DHT22;37948;53.260;6.394;2023-04-03T17:16:31;7.80;99.60
51922;DHT22;37948;53.260;6.394;2023-04-03T17:18:58;7.70;99.60
51922;DHT22;37948;53.260;6.394;2023-04-03T17:21:24;7.60;99.80